sensor_id;sensor_type;location;lat;lon;timestamp;P1;durP1;ratioP1;P2;durP2;ratioP2
16820;SDS011;8527;49.740;6.604;2022-10-16T00:02:06;8.38;;;2.50;;
16820;SDS011;8527;49.740;6.604;2022-10-16T00:07:04;2.22;;;1.80;;
16820;SDS011;8527;49.740;6.604;2022-10-16T00:12:03;4.75;;;1.83;;
16820;SDS011;8527;49.740;6.604;2022-10-16T00:17:06;5.63;;;2.20;;
16820;SDS011;8527;49.740;6.604;2022-10-16T00:22:05;3.80;;;1.92;;
16820;SDS011;8527;49.740;6.604;2022-10-16T00:27:03;8.02;;;2.10;;
16820;SDS011;8527;49.740;6.604;2022-10-16T00:32:01;7.50;;;2.35;;
16820;SDS011;8527;49.740;6.604;2022-10-16T00:37:03;6.63;;;2.30;;
16820;SDS011;8527;49.740;6.604;2022-10-16T00:42:01;7.55;;;1.80;;
16820;SDS011;8527;49.740;6.604;2022-10-16T00:47:00;7.03;;;2.53;;
16820;SDS011;8527;49.740;6.604;2022-10-16T00:52:01;5.22;;;2.30;;
16820;SDS011;8527;49.740;6.604;2022-10-16T00:57:06;3.33;;;1.85;;
16820;SDS011;8527;49.740;6.604;2022-10-16T01:02:13;6.85;;;2.05;;
16820;SDS011;8527;49.740;6.604;2022-10-16T01:07:16;9.50;;;2.10;;
16820;SDS011;8527;49.740;6.604;2022-10-16T01:12:34;6.05;;;2.05;;
16820;SDS011;8527;49.740;6.604;2022-10-16T01:17:39;4.40;;;2.42;;
16820;SDS011;8527;49.740;6.604;2022-10-16T01:22:50;4.30;;;2.17;;
16820;SDS011;8527;49.740;6.604;2022-10-16T01:28:04;2.67;;;1.77;;
16820;SDS011;8527;49.740;6.604;2022-10-16T01:33:13;2.00;;;1.25;;
16820;SDS011;8527;49.740;6.604;2022-10-16T01:38:17;2.83;;;1.77;;
16820;SDS011;8527;49.740;6.604;2022-10-16T01:43:22;1.30;;;1.23;;
16820;SDS011;8527;49.740;6.604;2022-10-16T01:48:27;2.00;;;1.10;;
16820;SDS011;8527;49.740;6.604;2022-10-16T01:53:35;2.03;;;1.25;;
16820;SDS011;8527;49.740;6.604;2022-10-16T01:58:42;2.75;;;1.33;;
16820;SDS011;8527;49.740;6.604;2022-10-16T02:03:46;0.80;;;0.80;;
16820;SDS011;8527;49.740;6.604;2022-10-16T02:08:49;2.28;;;1.10;;
16820;SDS011;8527;49.740;6.604;2022-10-16T02:19:05;1.65;;;0.88;;
16820;SDS011;8527;49.740;6.604;2022-10-16T02:24:13;0.93;;;0.82;;
16820;SDS011;8527;49.740;6.604;2022-10-16T02:29:31;1.10;;;0.80;;
16820;SDS011;8527;49.740;6.604;2022-10-16T02:34:33;4.00;;;1.08;;
16820;SDS011;8527;49.740;6.604;2022-10-16T02:39:35;1.42;;;1.15;;
16820;SDS011;8527;49.740;6.604;2022-10-16T02:44:46;1.30;;;0.80;;
16820;SDS011;8527;49.740;6.604;2022-10-16T02:49:45;3.63;;;0.93;;
16820;SDS011;8527;49.740;6.604;2022-10-16T02:54:52;1.13;;;1.00;;
16820;SDS011;8527;49.740;6.604;2022-10-16T02:59:53;2.00;;;1.17;;
16820;SDS011;8527;49.740;6.604;2022-10-16T03:05:01;5.05;;;0.98;;
16820;SDS011;8527;49.740;6.604;2022-10-16T03:10:03;1.42;;;0.98;;
16820;SDS011;8527;49.740;6.604;2022-10-16T03:15:05;3.85;;;1.08;;
16820;SDS011;8527;49.740;6.604;2022-10-16T03:20:04;1.75;;;0.93;;
16820;SDS011;8527;49.740;6.604;2022-10-16T03:25:04;2.92;;;1.30;;
16820;SDS011;8527;49.740;6.604;2022-10-16T03:30:07;1.75;;;1.15;;
16820;SDS011;8527;49.740;6.604;2022-10-16T03:35:13;2.90;;;1.25;;
16820;SDS011;8527;49.740;6.604;2022-10-16T03:40:11;3.42;;;1.42;;
16820;SDS011;8527;49.740;6.604;2022-10-16T03:45:13;2.53;;;1.20;;
16820;SDS011;8527;49.740;6.604;2022-10-16T03:50:11;7.22;;;1.15;;
16820;SDS011;8527;49.740;6.604;2022-10-16T03:55:13;5.55;;;1.10;;
16820;SDS011;8527;49.740;6.604;2022-10-16T04:00:14;8.05;;;1.45;;
16820;SDS011;8527;49.740;6.604;2022-10-16T04:05:13;2.58;;;1.42;;
16820;SDS011;8527;49.740;6.604;2022-10-16T04:10:12;1.60;;;1.30;;
16820;SDS011;8527;49.740;6.604;2022-10-16T04:15:16;1.85;;;1.50;;
16820;SDS011;8527;49.740;6.604;2022-10-16T04:20:17;1.67;;;1.05;;
16820;SDS011;8527;49.740;6.604;2022-10-16T04:25:16;0.90;;;0.90;;
16820;SDS011;8527;49.740;6.604;2022-10-16T04:30:17;3.92;;;1.23;;
16820;SDS011;8527;49.740;6.604;2022-10-16T04:35:21;4.25;;;1.20;;
16820;SDS011;8527;49.740;6.604;2022-10-16T04:40:21;2.53;;;1.20;;
16820;SDS011;8527;49.740;6.604;2022-10-16T04:45:22;3.70;;;1.20;;
16820;SDS011;8527;49.740;6.604;2022-10-16T04:50:20;4.50;;;1.10;;
16820;SDS011;8527;49.740;6.604;2022-10-16T04:55:18;1.02;;;0.98;;
16820;SDS011;8527;49.740;6.604;2022-10-16T05:00:17;3.20;;;1.00;;
16820;SDS011;8527;49.740;6.604;2022-10-16T05:05:18;1.70;;;0.90;;
16820;SDS011;8527;49.740;6.604;2022-10-16T05:10:18;1.48;;;1.10;;
16820;SDS011;8527;49.740;6.604;2022-10-16T05:15:17;2.80;;;1.10;;
16820;SDS011;8527;49.740;6.604;2022-10-16T05:20:23;6.13;;;1.05;;
16820;SDS011;8527;49.740;6.604;2022-10-16T05:25:31;1.98;;;1.10;;
16820;SDS011;8527;49.740;6.604;2022-10-16T05:30:36;1.75;;;0.80;;
16820;SDS011;8527;49.740;6.604;2022-10-16T05:35:38;2.35;;;1.13;;
16820;SDS011;8527;49.740;6.604;2022-10-16T05:40:37;1.80;;;0.80;;
16820;SDS011;8527;49.740;6.604;2022-10-16T05:45:40;2.70;;;0.93;;
16820;SDS011;8527;49.740;6.604;2022-10-16T05:50:41;6.07;;;3.53;;
16820;SDS011;8527;49.740;6.604;2022-10-16T05:55:39;1.60;;;1.30;;
16820;SDS011;8527;49.740;6.604;2022-10-16T06:00:43;2.40;;;0.93;;
16820;SDS011;8527;49.740;6.604;2022-10-16T06:05:44;1.27;;;0.90;;
16820;SDS011;8527;49.740;6.604;2022-10-16T06:10:57;2.13;;;0.70;;
16820;SDS011;8527;49.740;6.604;2022-10-16T06:16:01;2.15;;;0.73;;
16820;SDS011;8527;49.740;6.604;2022-10-16T06:21:10;2.90;;;0.90;;
16820;SDS011;8527;49.740;6.604;2022-10-16T06:26:12;0.88;;;0.88;;
16820;SDS011;8527;49.740;6.604;2022-10-16T06:31:13;4.18;;;0.95;;
16820;SDS011;8527;49.740;6.604;2022-10-16T06:36:14;5.70;;;1.10;;
16820;SDS011;8527;49.740;6.604;2022-10-16T06:41:14;2.00;;;1.10;;
16820;SDS011;8527;49.740;6.604;2022-10-16T06:46:20;4.50;;;1.17;;
16820;SDS011;8527;49.740;6.604;2022-10-16T06:51:23;2.63;;;1.30;;
16820;SDS011;8527;49.740;6.604;2022-10-16T06:56:23;2.95;;;1.40;;
16820;SDS011;8527;49.740;6.604;2022-10-16T07:01:26;2.53;;;1.90;;
16820;SDS011;8527;49.740;6.604;2022-10-16T07:06:30;2.70;;;1.30;;
16820;SDS011;8527;49.740;6.604;2022-10-16T07:11:30;4.03;;;1.98;;
16820;SDS011;8527;49.740;6.604;2022-10-16T07:16:37;2.90;;;1.63;;
16820;SDS011;8527;49.740;6.604;2022-10-16T07:21:42;13.98;;;10.20;;
16820;SDS011;8527;49.740;6.604;2022-10-16T07:26:41;5.75;;;1.73;;
16820;SDS011;8527;49.740;6.604;2022-10-16T07:31:41;3.15;;;2.08;;
16820;SDS011;8527;49.740;6.604;2022-10-16T07:36:43;3.33;;;1.48;;
16820;SDS011;8527;49.740;6.604;2022-10-16T07:41:41;7.53;;;1.80;;
16820;SDS011;8527;49.740;6.604;2022-10-16T07:46:40;2.28;;;1.95;;
16820;SDS011;8527;49.740;6.604;2022-10-16T07:51:38;4.35;;;2.70;;
16820;SDS011;8527;49.740;6.604;2022-10-16T07:56:39;9.77;;;6.28;;
16820;SDS011;8527;49.740;6.604;2022-10-16T08:01:38;6.53;;;3.65;;
16820;SDS011;8527;49.740;6.604;2022-10-16T08:06:37;9.80;;;2.80;;
16820;SDS011;8527;49.740;6.604;2022-10-16T08:11:37;3.75;;;2.67;;
16820;SDS011;8527;49.740;6.604;2022-10-16T08:16:38;5.07;;;3.63;;
16820;SDS011;8527;49.740;6.604;2022-10-16T08:21:36;3.70;;;2.20;;
16820;SDS011;8527;49.740;6.604;2022-10-16T08:26:40;8.05;;;3.13;;
16820;SDS011;8527;49.740;6.604;2022-10-16T08:31:38;4.15;;;2.50;;
16820;SDS011;8527;49.740;6.604;2022-10-16T08:36:37;5.57;;;2.22;;
16820;SDS011;8527;49.740;6.604;2022-10-16T08:41:47;3.08;;;2.13;;
16820;SDS011;8527;49.740;6.604;2022-10-16T08:47:11;3.53;;;2.25;;
16820;SDS011;8527;49.740;6.604;2022-10-16T08:52:16;7.05;;;4.03;;
16820;SDS011;8527;49.740;6.604;2022-10-16T08:57:17;4.03;;;2.90;;
16820;SDS011;8527;49.740;6.604;2022-10-16T09:02:24;6.03;;;2.78;;
16820;SDS011;8527;49.740;6.604;2022-10-16T09:07:29;3.22;;;2.65;;
16820;SDS011;8527;49.740;6.604;2022-10-16T09:17:41;1.55;;;1.33;;
16820;SDS011;8527;49.740;6.604;2022-10-16T09:22:48;4.85;;;2.63;;
16820;SDS011;8527;49.740;6.604;2022-10-16T09:27:52;5.05;;;4.30;;
16820;SDS011;8527;49.740;6.604;2022-10-16T09:32:58;5.22;;;3.72;;
16820;SDS011;8527;49.740;6.604;2022-10-16T09:38:00;2.45;;;1.80;;
16820;SDS011;8527;49.740;6.604;2022-10-16T09:43:06;3.33;;;2.30;;
16820;SDS011;8527;49.740;6.604;2022-10-16T09:48:17;5.63;;;1.90;;
16820;SDS011;8527;49.740;6.604;2022-10-16T09:53:17;1.70;;;1.25;;
16820;SDS011;8527;49.740;6.604;2022-10-16T09:58:20;2.80;;;1.90;;
16820;SDS011;8527;49.740;6.604;2022-10-16T10:03:26;3.65;;;1.90;;
16820;SDS011;8527;49.740;6.604;2022-10-16T10:08:32;5.03;;;1.80;;
16820;SDS011;8527;49.740;6.604;2022-10-16T10:13:33;2.15;;;1.35;;
16820;SDS011;8527;49.740;6.604;2022-10-16T10:18:32;4.13;;;1.65;;
16820;SDS011;8527;49.740;6.604;2022-10-16T10:23:35;2.20;;;1.33;;
16820;SDS011;8527;49.740;6.604;2022-10-16T10:28:47;1.20;;;0.95;;
16820;SDS011;8527;49.740;6.604;2022-10-16T10:33:52;15.30;;;8.27;;
16820;SDS011;8527;49.740;6.604;2022-10-16T10:38:57;1.90;;;1.42;;
16820;SDS011;8527;49.740;6.604;2022-10-16T10:44:06;11.00;;;4.75;;
16820;SDS011;8527;49.740;6.604;2022-10-16T10:49:19;8.27;;;4.00;;
16820;SDS011;8527;49.740;6.604;2022-10-16T10:54:32;13.07;;;7.97;;
16820;SDS011;8527;49.740;6.604;2022-10-16T10:59:41;5.68;;;3.40;;
16820;SDS011;8527;49.740;6.604;2022-10-16T11:04:55;4.05;;;1.98;;
16820;SDS011;8527;49.740;6.604;2022-10-16T11:10:12;3.33;;;1.33;;
16820;SDS011;8527;49.740;6.604;2022-10-16T11:15:24;6.35;;;2.92;;
16820;SDS011;8527;49.740;6.604;2022-10-16T11:20:26;3.95;;;2.58;;
16820;SDS011;8527;49.740;6.604;2022-10-16T11:25:32;11.75;;;3.92;;
16820;SDS011;8527;49.740;6.604;2022-10-16T11:30:40;1.60;;;1.50;;
16820;SDS011;8527;49.740;6.604;2022-10-16T11:35:42;2.38;;;2.08;;
16820;SDS011;8527;49.740;6.604;2022-10-16T11:40:47;4.40;;;2.10;;
16820;SDS011;8527;49.740;6.604;2022-10-16T11:45:51;2.55;;;1.65;;
16820;SDS011;8527;49.740;6.604;2022-10-16T11:50:53;2.53;;;2.10;;
16820;SDS011;8527;49.740;6.604;2022-10-16T11:55:52;4.38;;;1.67;;
16820;SDS011;8527;49.740;6.604;2022-10-16T12:01:03;2.67;;;1.83;;
16820;SDS011;8527;49.740;6.604;2022-10-16T12:06:20;3.60;;;2.35;;
16820;SDS011;8527;49.740;6.604;2022-10-16T12:11:31;2.70;;;2.20;;
16820;SDS011;8527;49.740;6.604;2022-10-16T12:16:36;3.83;;;2.08;;
16820;SDS011;8527;49.740;6.604;2022-10-16T12:21:48;2.47;;;2.27;;
16820;SDS011;8527;49.740;6.604;2022-10-16T12:26:52;3.88;;;2.60;;
16820;SDS011;8527;49.740;6.604;2022-10-16T12:31:53;2.40;;;2.20;;
16820;SDS011;8527;49.740;6.604;2022-10-16T12:36:52;4.95;;;2.28;;
16820;SDS011;8527;49.740;6.604;2022-10-16T12:42:01;6.25;;;2.72;;
16820;SDS011;8527;49.740;6.604;2022-10-16T12:47:18;5.45;;;2.40;;
16820;SDS011;8527;49.740;6.604;2022-10-16T12:57:35;4.57;;;2.53;;
16820;SDS011;8527;49.740;6.604;2022-10-16T13:13:49;3.38;;;2.67;;
16820;SDS011;8527;49.740;6.604;2022-10-16T13:19:04;3.55;;;3.00;;
16820;SDS011;8527;49.740;6.604;2022-10-16T13:24:20;9.30;;;3.53;;
16820;SDS011;8527;49.740;6.604;2022-10-16T13:29:33;4.63;;;3.08;;
16820;SDS011;8527;49.740;6.604;2022-10-16T13:34:32;5.63;;;3.00;;
16820;SDS011;8527;49.740;6.604;2022-10-16T13:39:33;2.88;;;2.42;;
16820;SDS011;8527;49.740;6.604;2022-10-16T13:44:34;3.88;;;2.40;;
16820;SDS011;8527;49.740;6.604;2022-10-16T13:49:37;5.50;;;2.83;;
16820;SDS011;8527;49.740;6.604;2022-10-16T13:54:38;3.38;;;2.70;;
16820;SDS011;8527;49.740;6.604;2022-10-16T13:59:36;6.45;;;2.67;;
16820;SDS011;8527;49.740;6.604;2022-10-16T14:04:37;3.45;;;2.30;;
16820;SDS011;8527;49.740;6.604;2022-10-16T14:09:39;4.03;;;2.78;;
16820;SDS011;8527;49.740;6.604;2022-10-16T14:14:40;6.70;;;3.17;;
16820;SDS011;8527;49.740;6.604;2022-10-16T14:19:48;7.55;;;3.20;;
16820;SDS011;8527;49.740;6.604;2022-10-16T14:24:51;9.00;;;3.15;;
16820;SDS011;8527;49.740;6.604;2022-10-16T14:30:03;9.52;;;3.63;;
16820;SDS011;8527;49.740;6.604;2022-10-16T14:35:21;11.68;;;3.38;;
16820;SDS011;8527;49.740;6.604;2022-10-16T14:40:25;8.32;;;2.97;;
16820;SDS011;8527;49.740;6.604;2022-10-16T14:45:34;5.20;;;2.92;;
16820;SDS011;8527;49.740;6.604;2022-10-16T14:50:36;4.53;;;2.60;;
16820;SDS011;8527;49.740;6.604;2022-10-16T14:55:38;5.97;;;2.90;;
16820;SDS011;8527;49.740;6.604;2022-10-16T15:00:41;9.05;;;3.28;;
16820;SDS011;8527;49.740;6.604;2022-10-16T15:05:39;6.32;;;3.20;;
16820;SDS011;8527;49.740;6.604;2022-10-16T15:10:41;7.53;;;2.80;;
16820;SDS011;8527;49.740;6.604;2022-10-16T15:15:42;11.13;;;3.42;;
16820;SDS011;8527;49.740;6.604;2022-10-16T15:20:44;4.90;;;3.17;;
16820;SDS011;8527;49.740;6.604;2022-10-16T15:25:46;5.43;;;3.00;;
16820;SDS011;8527;49.740;6.604;2022-10-16T15:30:51;9.00;;;3.15;;
16820;SDS011;8527;49.740;6.604;2022-10-16T15:35:51;12.10;;;3.67;;
16820;SDS011;8527;49.740;6.604;2022-10-16T15:40:58;10.82;;;4.40;;
16820;SDS011;8527;49.740;6.604;2022-10-16T15:46:00;7.90;;;4.43;;
16820;SDS011;8527;49.740;6.604;2022-10-16T15:51:00;10.60;;;5.63;;
16820;SDS011;8527;49.740;6.604;2022-10-16T15:56:06;13.82;;;4.72;;
16820;SDS011;8527;49.740;6.604;2022-10-16T16:01:06;12.73;;;3.50;;
16820;SDS011;8527;49.740;6.604;2022-10-16T16:06:06;8.48;;;3.97;;
16820;SDS011;8527;49.740;6.604;2022-10-16T16:11:14;6.40;;;3.50;;
16820;SDS011;8527;49.740;6.604;2022-10-16T16:16:15;6.68;;;2.90;;
16820;SDS011;8527;49.740;6.604;2022-10-16T16:21:16;8.48;;;3.20;;
16820;SDS011;8527;49.740;6.604;2022-10-16T16:26:22;6.75;;;3.58;;
16820;SDS011;8527;49.740;6.604;2022-10-16T16:31:30;8.38;;;2.80;;
16820;SDS011;8527;49.740;6.604;2022-10-16T16:36:32;8.30;;;2.80;;
16820;SDS011;8527;49.740;6.604;2022-10-16T16:41:34;12.07;;;5.10;;
16820;SDS011;8527;49.740;6.604;2022-10-16T16:46:33;8.75;;;3.65;;
16820;SDS011;8527;49.740;6.604;2022-10-16T16:51:32;14.40;;;3.80;;
16820;SDS011;8527;49.740;6.604;2022-10-16T16:56:33;11.95;;;5.88;;
16820;SDS011;8527;49.740;6.604;2022-10-16T17:01:32;8.57;;;4.35;;
16820;SDS011;8527;49.740;6.604;2022-10-16T17:06:31;14.02;;;4.75;;
16820;SDS011;8527;49.740;6.604;2022-10-16T17:11:38;12.13;;;5.00;;
16820;SDS011;8527;49.740;6.604;2022-10-16T17:16:38;16.08;;;5.55;;
16820;SDS011;8527;49.740;6.604;2022-10-16T17:21:41;11.52;;;4.50;;
16820;SDS011;8527;49.740;6.604;2022-10-16T17:26:42;9.27;;;4.43;;
16820;SDS011;8527;49.740;6.604;2022-10-16T17:31:43;9.65;;;4.50;;
16820;SDS011;8527;49.740;6.604;2022-10-16T17:36:43;6.25;;;3.72;;
16820;SDS011;8527;49.740;6.604;2022-10-16T17:41:47;9.40;;;4.00;;
16820;SDS011;8527;49.740;6.604;2022-10-16T17:46:46;8.13;;;4.68;;
16820;SDS011;8527;49.740;6.604;2022-10-16T17:51:48;15.75;;;4.97;;
16820;SDS011;8527;49.740;6.604;2022-10-16T17:56:50;10.30;;;6.32;;
16820;SDS011;8527;49.740;6.604;2022-10-16T18:01:50;17.70;;;6.07;;
16820;SDS011;8527;49.740;6.604;2022-10-16T18:06:49;8.13;;;5.03;;
16820;SDS011;8527;49.740;6.604;2022-10-16T18:11:53;9.82;;;4.43;;
16820;SDS011;8527;49.740;6.604;2022-10-16T18:16:54;9.90;;;4.93;;
16820;SDS011;8527;49.740;6.604;2022-10-16T18:21:52;6.63;;;4.35;;
16820;SDS011;8527;49.740;6.604;2022-10-16T18:26:55;14.82;;;5.22;;
16820;SDS011;8527;49.740;6.604;2022-10-16T18:31:53;12.35;;;5.53;;
16820;SDS011;8527;49.740;6.604;2022-10-16T18:36:52;9.27;;;4.30;;
16820;SDS011;8527;49.740;6.604;2022-10-16T18:41:52;17.10;;;4.38;;
16820;SDS011;8527;49.740;6.604;2022-10-16T18:46:56;13.48;;;4.32;;
16820;SDS011;8527;49.740;6.604;2022-10-16T18:51:56;12.20;;;5.28;;
16820;SDS011;8527;49.740;6.604;2022-10-16T18:56:59;6.10;;;4.38;;
16820;SDS011;8527;49.740;6.604;2022-10-16T19:02:03;14.25;;;4.97;;
16820;SDS011;8527;49.740;6.604;2022-10-16T19:07:01;10.73;;;4.53;;
16820;SDS011;8527;49.740;6.604;2022-10-16T19:12:03;16.00;;;5.15;;
16820;SDS011;8527;49.740;6.604;2022-10-16T19:17:02;11.00;;;5.10;;
16820;SDS011;8527;49.740;6.604;2022-10-16T19:22:01;17.10;;;6.50;;
16820;SDS011;8527;49.740;6.604;2022-10-16T19:27:13;14.20;;;6.20;;
16820;SDS011;8527;49.740;6.604;2022-10-16T19:32:12;11.63;;;5.38;;
16820;SDS011;8527;49.740;6.604;2022-10-16T19:37:10;9.02;;;5.20;;
16820;SDS011;8527;49.740;6.604;2022-10-16T19:42:09;9.82;;;5.57;;
16820;SDS011;8527;49.740;6.604;2022-10-16T19:47:10;18.50;;;5.90;;
16820;SDS011;8527;49.740;6.604;2022-10-16T19:52:08;18.70;;;6.20;;
16820;SDS011;8527;49.740;6.604;2022-10-16T19:57:07;19.63;;;6.78;;
16820;SDS011;8527;49.740;6.604;2022-10-16T20:02:11;11.82;;;5.95;;
16820;SDS011;8527;49.740;6.604;2022-10-16T20:07:10;13.60;;;5.60;;
16820;SDS011;8527;49.740;6.604;2022-10-16T20:12:08;8.32;;;5.05;;
16820;SDS011;8527;49.740;6.604;2022-10-16T20:17:06;9.07;;;4.57;;
16820;SDS011;8527;49.740;6.604;2022-10-16T20:22:07;18.67;;;4.75;;
16820;SDS011;8527;49.740;6.604;2022-10-16T20:27:06;8.15;;;4.13;;
16820;SDS011;8527;49.740;6.604;2022-10-16T20:32:05;15.52;;;8.25;;
16820;SDS011;8527;49.740;6.604;2022-10-16T20:37:06;12.85;;;6.22;;
16820;SDS011;8527;49.740;6.604;2022-10-16T20:42:07;13.48;;;6.30;;
16820;SDS011;8527;49.740;6.604;2022-10-16T20:47:05;20.95;;;6.55;;
16820;SDS011;8527;49.740;6.604;2022-10-16T20:52:03;14.23;;;6.03;;
16820;SDS011;8527;49.740;6.604;2022-10-16T20:57:04;20.70;;;6.85;;
16820;SDS011;8527;49.740;6.604;2022-10-16T21:02:03;16.88;;;6.70;;
16820;SDS011;8527;49.740;6.604;2022-10-16T21:07:02;18.27;;;7.15;;
16820;SDS011;8527;49.740;6.604;2022-10-16T21:12:13;22.23;;;6.72;;
16820;SDS011;8527;49.740;6.604;2022-10-16T21:17:11;21.27;;;6.75;;
16820;SDS011;8527;49.740;6.604;2022-10-16T21:22:10;13.35;;;6.63;;
16820;SDS011;8527;49.740;6.604;2022-10-16T21:27:08;13.38;;;5.95;;
16820;SDS011;8527;49.740;6.604;2022-10-16T21:32:09;20.48;;;5.90;;
16820;SDS011;8527;49.740;6.604;2022-10-16T21:37:08;22.92;;;6.68;;
16820;SDS011;8527;49.740;6.604;2022-10-16T21:42:07;29.02;;;7.22;;
16820;SDS011;8527;49.740;6.604;2022-10-16T21:47:11;77.30;;;8.55;;
16820;SDS011;8527;49.740;6.604;2022-10-16T21:52:13;56.92;;;7.32;;
16820;SDS011;8527;49.740;6.604;2022-10-16T21:57:14;36.60;;;7.65;;
16820;SDS011;8527;49.740;6.604;2022-10-16T22:02:15;34.88;;;8.10;;
16820;SDS011;8527;49.740;6.604;2022-10-16T22:07:14;41.33;;;7.97;;
16820;SDS011;8527;49.740;6.604;2022-10-16T22:12:21;26.10;;;7.25;;
16820;SDS011;8527;49.740;6.604;2022-10-16T22:17:28;11.43;;;5.85;;
16820;SDS011;8527;49.740;6.604;2022-10-16T22:22:27;10.77;;;4.97;;
16820;SDS011;8527;49.740;6.604;2022-10-16T22:27:25;12.32;;;5.43;;
16820;SDS011;8527;49.740;6.604;2022-10-16T22:32:27;10.10;;;5.22;;
16820;SDS011;8527;49.740;6.604;2022-10-16T22:37:27;8.25;;;5.10;;
16820;SDS011;8527;49.740;6.604;2022-10-16T22:42:25;16.17;;;5.30;;
16820;SDS011;8527;49.740;6.604;2022-10-16T22:47:24;13.00;;;6.07;;
16820;SDS011;8527;49.740;6.604;2022-10-16T22:52:25;11.68;;;5.88;;
16820;SDS011;8527;49.740;6.604;2022-10-16T22:57:26;9.15;;;5.38;;
16820;SDS011;8527;49.740;6.604;2022-10-16T23:02:25;22.55;;;5.93;;
16820;SDS011;8527;49.740;6.604;2022-10-16T23:07:31;14.10;;;6.20;;
16820;SDS011;8527;49.740;6.604;2022-10-16T23:12:33;15.18;;;5.85;;
16820;SDS011;8527;49.740;6.604;2022-10-16T23:17:34;16.92;;;6.32;;
16820;SDS011;8527;49.740;6.604;2022-10-16T23:22:35;38.25;;;7.55;;
16820;SDS011;8527;49.740;6.604;2022-10-16T23:27:33;15.45;;;7.00;;
16820;SDS011;8527;49.740;6.604;2022-10-16T23:32:34;15.00;;;6.50;;
16820;SDS011;8527;49.740;6.604;2022-10-16T23:37:35;18.13;;;6.20;;
16820;SDS011;8527;49.740;6.604;2022-10-16T23:42:33;25.45;;;6.75;;
16820;SDS011;8527;49.740;6.604;2022-10-16T23:47:31;41.38;;;7.63;;
16820;SDS011;8527;49.740;6.604;2022-10-16T23:52:30;18.00;;;5.47;;
16820;SDS011;8527;49.740;6.604;2022-10-16T23:57:31;17.17;;;5.32;;
